sensor_id;sensor_type;location;lat;lon;timestamp;pressure;altitude;pressure_sealevel;temperature;humidity
55801;BME280;41730;51.960;20.158;2023-09-19T00:00:00;99469.29;;;20.51;61.36
55801;BME280;41730;51.960;20.158;2023-09-19T00:02:31;99471.33;;;20.65;60.96
55801;BME280;41730;51.960;20.158;2023-09-19T00:05:01;99471.14;;;20.52;61.22
55801;BME280;41730;51.960;20.158;2023-09-19T00:07:32;99464.04;;;20.44;61.46
55801;BME280;41730;51.960;20.158;2023-09-19T00:10:05;99461.31;;;20.51;61.38
55801;BME280;41730;51.960;20.158;2023-09-19T00:12:38;99459.70;;;20.51;61.33
55801;BME280;41730;51.960;20.158;2023-09-19T00:15:12;99455.23;;;20.55;61.23
55801;BME280;41730;51.960;20.158;2023-09-19T00:17:46;99455.05;;;20.67;61.00
55801;BME280;41730;51.960;20.158;2023-09-19T00:20:15;99450.92;;;20.57;61.09
55801;BME280;41730;51.960;20.158;2023-09-19T00:22:45;99446.15;;;20.51;61.24
55801;BME280;41730;51.960;20.158;2023-09-19T00:25:15;99444.89;;;20.46;61.36
55801;BME280;41730;51.960;20.158;2023-09-19T00:27:45;99437.64;;;20.60;61.10
55801;BME280;41730;51.960;20.158;2023-09-19T00:30:16;99436.45;;;20.62;61.00
55801;BME280;41730;51.960;20.158;2023-09-19T00:32:48;99435.52;;;20.52;61.19
55801;BME280;41730;51.960;20.158;2023-09-19T00:35:20;99439.20;;;20.41;61.53
55801;BME280;41730;51.960;20.158;2023-09-19T00:37:52;99441.34;;;20.39;61.52
55801;BME280;41730;51.960;20.158;2023-09-19T00:40:22;99439.95;;;20.36;61.62
55801;BME280;41730;51.960;20.158;2023-09-19T00:42:52;99431.90;;;20.50;61.34
55801;BME280;41730;51.960;20.158;2023-09-19T00:45:27;99430.91;;;20.54;61.03
55801;BME280;41730;51.960;20.158;2023-09-19T00:47:57;99430.35;;;20.45;61.28
55801;BME280;41730;51.960;20.158;2023-09-19T00:50:32;99431.25;;;20.47;61.28
55801;BME280;41730;51.960;20.158;2023-09-19T00:53:02;99427.27;;;20.46;61.36
55801;BME280;41730;51.960;20.158;2023-09-19T00:55:36;99431.90;;;20.32;61.67
55801;BME280;41730;51.960;20.158;2023-09-19T00:58:06;99430.52;;;20.29;61.71
55801;BME280;41730;51.960;20.158;2023-09-19T01:00:36;99428.01;;;20.30;61.71
55801;BME280;41730;51.960;20.158;2023-09-19T01:03:07;99424.18;;;20.36;61.47
55801;BME280;41730;51.960;20.158;2023-09-19T01:05:38;99420.02;;;20.25;61.78
55801;BME280;41730;51.960;20.158;2023-09-19T01:08:08;99420.34;;;20.26;61.78
55801;BME280;41730;51.960;20.158;2023-09-19T01:10:41;99416.90;;;20.20;61.98
55801;BME280;41730;51.960;20.158;2023-09-19T01:13:16;99408.46;;;20.23;61.86
55801;BME280;41730;51.960;20.158;2023-09-19T01:15:55;99405.61;;;20.18;62.11
55801;BME280;41730;51.960;20.158;2023-09-19T01:18:30;99397.31;;;20.35;61.72
55801;BME280;41730;51.960;20.158;2023-09-19T01:21:05;99402.52;;;20.47;61.30
55801;BME280;41730;51.960;20.158;2023-09-19T01:23:43;99398.00;;;20.37;61.46
55801;BME280;41730;51.960;20.158;2023-09-19T01:26:27;99395.94;;;20.24;61.89
55801;BME280;41730;51.960;20.158;2023-09-19T01:29:06;99390.58;;;20.33;61.69
55801;BME280;41730;51.960;20.158;2023-09-19T01:31:42;99389.16;;;20.25;61.76
55801;BME280;41730;51.960;20.158;2023-09-19T01:34:13;99386.58;;;20.25;61.96
55801;BME280;41730;51.960;20.158;2023-09-19T01:36:43;99384.77;;;20.39;61.59
55801;BME280;41730;51.960;20.158;2023-09-19T01:39:13;99377.17;;;20.45;61.32
55801;BME280;41730;51.960;20.158;2023-09-19T01:41:50;99376.33;;;20.35;61.71
55801;BME280;41730;51.960;20.158;2023-09-19T01:44:24;99375.83;;;20.35;61.66
55801;BME280;41730;51.960;20.158;2023-09-19T01:46:55;99373.89;;;20.35;61.55
55801;BME280;41730;51.960;20.158;2023-09-19T01:49:31;99376.88;;;20.36;61.57
55801;BME280;41730;51.960;20.158;2023-09-19T01:52:04;99374.27;;;20.29;61.80
55801;BME280;41730;51.960;20.158;2023-09-19T01:54:36;99368.13;;;20.37;61.63
55801;BME280;41730;51.960;20.158;2023-09-19T01:57:13;99367.95;;;20.33;61.70
55801;BME280;41730;51.960;20.158;2023-09-19T01:59:45;99365.58;;;20.26;61.84
55801;BME280;41730;51.960;20.158;2023-09-19T02:02:17;99368.65;;;20.16;62.13
55801;BME280;41730;51.960;20.158;2023-09-19T02:04:53;99365.10;;;20.07;62.40
55801;BME280;41730;51.960;20.158;2023-09-19T02:07:24;99363.77;;;20.27;61.99
55801;BME280;41730;51.960;20.158;2023-09-19T02:09:55;99361.02;;;20.25;61.78
55801;BME280;41730;51.960;20.158;2023-09-19T02:12:25;99364.83;;;20.19;62.01
55801;BME280;41730;51.960;20.158;2023-09-19T02:14:55;99363.57;;;20.16;62.11
55801;BME280;41730;51.960;20.158;2023-09-19T02:17:26;99361.24;;;20.20;61.97
55801;BME280;41730;51.960;20.158;2023-09-19T02:19:57;99361.97;;;20.26;61.83
55801;BME280;41730;51.960;20.158;2023-09-19T02:22:29;99360.47;;;20.44;61.40
55801;BME280;41730;51.960;20.158;2023-09-19T02:24:59;99357.02;;;20.49;61.09
55801;BME280;41730;51.960;20.158;2023-09-19T02:27:30;99351.98;;;20.50;61.18
55801;BME280;41730;51.960;20.158;2023-09-19T02:30:00;99351.88;;;20.54;60.96
55801;BME280;41730;51.960;20.158;2023-09-19T02:32:32;99351.31;;;20.49;61.04
55801;BME280;41730;51.960;20.158;2023-09-19T02:35:06;99342.36;;;20.50;61.02
55801;BME280;41730;51.960;20.158;2023-09-19T02:37:36;99345.02;;;20.33;61.47
55801;BME280;41730;51.960;20.158;2023-09-19T02:40:06;99341.79;;;20.20;61.74
55801;BME280;41730;51.960;20.158;2023-09-19T02:42:47;99338.42;;;20.20;61.85
55801;BME280;41730;51.960;20.158;2023-09-19T02:45:18;99339.94;;;20.21;61.68
55801;BME280;41730;51.960;20.158;2023-09-19T02:47:48;99337.44;;;20.17;61.74
55801;BME280;41730;51.960;20.158;2023-09-19T02:50:18;99337.09;;;20.20;61.65
55801;BME280;41730;51.960;20.158;2023-09-19T02:52:48;99335.58;;;20.10;61.87
55801;BME280;41730;51.960;20.158;2023-09-19T02:55:18;99329.67;;;20.06;62.02
55801;BME280;41730;51.960;20.158;2023-09-19T02:57:52;99330.50;;;20.01;62.09
55801;BME280;41730;51.960;20.158;2023-09-19T03:00:23;99327.29;;;19.94;62.25
55801;BME280;41730;51.960;20.158;2023-09-19T03:02:54;99329.85;;;20.11;61.95
55801;BME280;41730;51.960;20.158;2023-09-19T03:05:24;99328.30;;;20.25;61.39
55801;BME280;41730;51.960;20.158;2023-09-19T03:07:54;99328.56;;;20.18;61.50
55801;BME280;41730;51.960;20.158;2023-09-19T03:10:24;99325.95;;;20.13;61.62
55801;BME280;41730;51.960;20.158;2023-09-19T03:12:56;99319.57;;;20.18;61.46
55801;BME280;41730;51.960;20.158;2023-09-19T03:15:27;99321.38;;;20.07;61.70
55801;BME280;41730;51.960;20.158;2023-09-19T03:17:57;99323.55;;;19.94;62.09
55801;BME280;41730;51.960;20.158;2023-09-19T03:20:28;99319.34;;;19.89;62.25
55801;BME280;41730;51.960;20.158;2023-09-19T03:22:58;99317.17;;;19.81;62.44
55801;BME280;41730;51.960;20.158;2023-09-19T03:25:28;99315.64;;;19.84;62.34
55801;BME280;41730;51.960;20.158;2023-09-19T03:28:00;99320.06;;;19.77;62.46
55801;BME280;41730;51.960;20.158;2023-09-19T03:30:35;99315.27;;;19.87;62.31
55801;BME280;41730;51.960;20.158;2023-09-19T03:33:07;99318.11;;;19.81;62.34
55801;BME280;41730;51.960;20.158;2023-09-19T03:35:40;99315.17;;;19.78;62.46
55801;BME280;41730;51.960;20.158;2023-09-19T03:38:12;99309.42;;;19.78;62.43
55801;BME280;41730;51.960;20.158;2023-09-19T03:40:42;99310.34;;;19.70;62.54
55801;BME280;41730;51.960;20.158;2023-09-19T03:43:13;99312.36;;;19.67;62.66
55801;BME280;41730;51.960;20.158;2023-09-19T03:45:43;99306.03;;;19.69;62.69
55801;BME280;41730;51.960;20.158;2023-09-19T03:48:13;99307.45;;;19.73;62.43
55801;BME280;41730;51.960;20.158;2023-09-19T03:50:42;99312.52;;;19.67;62.66
55801;BME280;41730;51.960;20.158;2023-09-19T03:53:12;99315.66;;;19.62;62.73
55801;BME280;41730;51.960;20.158;2023-09-19T03:55:42;99312.84;;;19.58;62.90
55801;BME280;41730;51.960;20.158;2023-09-19T03:58:14;99313.20;;;19.66;62.64
55801;BME280;41730;51.960;20.158;2023-09-19T04:00:44;99310.70;;;19.70;62.61
55801;BME280;41730;51.960;20.158;2023-09-19T04:03:13;99310.16;;;19.81;62.33
55801;BME280;41730;51.960;20.158;2023-09-19T04:05:47;99314.42;;;19.96;62.09
55801;BME280;41730;51.960;20.158;2023-09-19T04:08:17;99310.31;;;19.99;61.82
55801;BME280;41730;51.960;20.158;2023-09-19T04:10:47;99309.95;;;19.97;61.82
55801;BME280;41730;51.960;20.158;2023-09-19T04:13:17;99304.80;;;20.02;61.80
55801;BME280;41730;51.960;20.158;2023-09-19T04:15:47;99301.16;;;19.99;61.82
55801;BME280;41730;51.960;20.158;2023-09-19T04:18:18;99294.69;;;19.85;62.20
55801;BME280;41730;51.960;20.158;2023-09-19T04:20:50;99292.66;;;19.84;62.28
55801;BME280;41730;51.960;20.158;2023-09-19T04:23:19;99291.48;;;19.83;62.24
55801;BME280;41730;51.960;20.158;2023-09-19T04:25:49;99297.49;;;19.77;62.44
55801;BME280;41730;51.960;20.158;2023-09-19T04:28:19;99297.20;;;19.75;62.46
55801;BME280;41730;51.960;20.158;2023-09-19T04:30:49;99296.55;;;19.69;62.72
55801;BME280;41730;51.960;20.158;2023-09-19T04:33:19;99299.58;;;19.76;62.51
55801;BME280;41730;51.960;20.158;2023-09-19T04:35:50;99305.20;;;19.75;62.56
55801;BME280;41730;51.960;20.158;2023-09-19T04:38:20;99318.34;;;19.90;62.23
55801;BME280;41730;51.960;20.158;2023-09-19T04:40:50;99313.77;;;19.95;62.11
55801;BME280;41730;51.960;20.158;2023-09-19T04:43:19;99314.61;;;19.87;62.30
55801;BME280;41730;51.960;20.158;2023-09-19T04:45:49;99328.36;;;19.86;62.54
55801;BME280;41730;51.960;20.158;2023-09-19T04:48:19;99327.55;;;20.03;62.19
55801;BME280;41730;51.960;20.158;2023-09-19T04:50:50;99319.61;;;20.18;61.73
55801;BME280;41730;51.960;20.158;2023-09-19T04:53:20;99315.66;;;20.08;61.91
55801;BME280;41730;51.960;20.158;2023-09-19T04:55:53;99313.33;;;20.06;62.02
55801;BME280;41730;51.960;20.158;2023-09-19T04:58:24;99310.95;;;20.15;61.83
55801;BME280;41730;51.960;20.158;2023-09-19T05:00:54;99314.52;;;20.29;61.55
55801;BME280;41730;51.960;20.158;2023-09-19T05:03:24;99318.71;;;20.46;61.28
55801;BME280;41730;51.960;20.158;2023-09-19T05:05:54;99317.40;;;20.52;60.98
55801;BME280;41730;51.960;20.158;2023-09-19T05:08:24;99319.66;;;20.36;61.43
55801;BME280;41730;51.960;20.158;2023-09-19T05:10:55;99327.50;;;20.29;61.70
55801;BME280;41730;51.960;20.158;2023-09-19T05:13:25;99325.51;;;20.22;61.73
55801;BME280;41730;51.960;20.158;2023-09-19T05:15:55;99323.00;;;20.12;62.06
55801;BME280;41730;51.960;20.158;2023-09-19T05:18:31;99323.48;;;20.17;61.96
55801;BME280;41730;51.960;20.158;2023-09-19T05:21:03;99321.63;;;20.18;61.96
55801;BME280;41730;51.960;20.158;2023-09-19T05:23:33;99321.06;;;20.17;62.00
55801;BME280;41730;51.960;20.158;2023-09-19T05:26:03;99319.13;;;20.14;62.06
55801;BME280;41730;51.960;20.158;2023-09-19T05:28:35;99314.88;;;20.14;62.12
55801;BME280;41730;51.960;20.158;2023-09-19T05:31:06;99312.64;;;20.17;62.04
55801;BME280;41730;51.960;20.158;2023-09-19T05:33:36;99306.42;;;20.17;62.25
55801;BME280;41730;51.960;20.158;2023-09-19T05:36:07;99299.76;;;20.32;61.90
55801;BME280;41730;51.960;20.158;2023-09-19T05:38:38;99303.48;;;20.37;61.80
55801;BME280;41730;51.960;20.158;2023-09-19T05:41:10;99308.16;;;20.43;61.74
55801;BME280;41730;51.960;20.158;2023-09-19T05:43:42;99311.01;;;20.51;61.60
55801;BME280;41730;51.960;20.158;2023-09-19T05:46:12;99311.13;;;20.53;61.61
55801;BME280;41730;51.960;20.158;2023-09-19T05:48:44;99312.27;;;20.64;61.58
55801;BME280;41730;51.960;20.158;2023-09-19T05:51:18;99318.02;;;20.74;61.41
55801;BME280;41730;51.960;20.158;2023-09-19T05:53:51;99316.58;;;20.83;61.34
55801;BME280;41730;51.960;20.158;2023-09-19T05:56:23;99318.11;;;21.05;60.86
55801;BME280;41730;51.960;20.158;2023-09-19T05:58:54;99323.27;;;21.00;61.04
55801;BME280;41730;51.960;20.158;2023-09-19T06:01:25;99329.65;;;21.00;61.30
55801;BME280;41730;51.960;20.158;2023-09-19T06:03:56;99331.85;;;21.19;61.16
55801;BME280;41730;51.960;20.158;2023-09-19T06:06:29;99335.52;;;21.23;61.09
55801;BME280;41730;51.960;20.158;2023-09-19T06:09:00;99336.29;;;21.20;61.34
55801;BME280;41730;51.960;20.158;2023-09-19T06:11:31;99334.48;;;21.24;61.51
55801;BME280;41730;51.960;20.158;2023-09-19T06:14:03;99335.10;;;21.52;61.18
55801;BME280;41730;51.960;20.158;2023-09-19T06:16:34;99336.85;;;21.89;60.46
55801;BME280;41730;51.960;20.158;2023-09-19T06:19:05;99339.83;;;22.10;60.23
55801;BME280;41730;51.960;20.158;2023-09-19T06:21:37;99343.90;;;22.27;60.13
55801;BME280;41730;51.960;20.158;2023-09-19T06:24:08;99347.13;;;22.48;59.95
55801;BME280;41730;51.960;20.158;2023-09-19T06:26:40;99343.34;;;22.66;59.93
55801;BME280;41730;51.960;20.158;2023-09-19T06:29:13;99342.02;;;22.96;59.55
55801;BME280;41730;51.960;20.158;2023-09-19T06:31:44;99343.04;;;23.06;59.62
55801;BME280;41730;51.960;20.158;2023-09-19T06:34:15;99349.67;;;23.25;59.69
55801;BME280;41730;51.960;20.158;2023-09-19T06:36:47;99350.69;;;23.52;59.47
55801;BME280;41730;51.960;20.158;2023-09-19T06:39:18;99357.33;;;23.89;58.55
55801;BME280;41730;51.960;20.158;2023-09-19T06:41:51;99356.04;;;24.22;57.80
55801;BME280;41730;51.960;20.158;2023-09-19T06:44:22;99359.98;;;24.28;57.61
55801;BME280;41730;51.960;20.158;2023-09-19T06:46:55;99361.25;;;24.30;57.27
55801;BME280;41730;51.960;20.158;2023-09-19T06:49:27;99361.55;;;24.22;57.25
55801;BME280;41730;51.960;20.158;2023-09-19T06:52:00;99362.96;;;23.97;57.54
55801;BME280;41730;51.960;20.158;2023-09-19T06:54:31;99364.60;;;23.84;58.04
55801;BME280;41730;51.960;20.158;2023-09-19T06:57:03;99362.96;;;23.95;58.02
55801;BME280;41730;51.960;20.158;2023-09-19T06:59:35;99371.27;;;24.11;57.84
55801;BME280;41730;51.960;20.158;2023-09-19T07:02:07;99370.86;;;24.29;57.58
55801;BME280;41730;51.960;20.158;2023-09-19T07:04:38;99371.88;;;24.47;57.24
55801;BME280;41730;51.960;20.158;2023-09-19T07:07:09;99370.50;;;24.62;56.96
55801;BME280;41730;51.960;20.158;2023-09-19T07:09:42;99373.69;;;24.59;56.92
55801;BME280;41730;51.960;20.158;2023-09-19T07:12:13;99378.27;;;24.59;56.91
55801;BME280;41730;51.960;20.158;2023-09-19T07:14:43;99386.41;;;24.67;56.95
55801;BME280;41730;51.960;20.158;2023-09-19T07:17:14;99391.66;;;24.77;56.88
55801;BME280;41730;51.960;20.158;2023-09-19T07:19:46;99403.06;;;24.83;56.64
55801;BME280;41730;51.960;20.158;2023-09-19T07:22:17;99413.16;;;24.79;56.55
55801;BME280;41730;51.960;20.158;2023-09-19T07:24:48;99422.30;;;24.71;56.53
55801;BME280;41730;51.960;20.158;2023-09-19T07:27:19;99424.34;;;24.71;56.37
55801;BME280;41730;51.960;20.158;2023-09-19T07:29:51;99433.33;;;24.58;56.50
55801;BME280;41730;51.960;20.158;2023-09-19T07:32:22;99432.66;;;24.52;56.55
55801;BME280;41730;51.960;20.158;2023-09-19T07:34:53;99432.58;;;24.45;56.51
55801;BME280;41730;51.960;20.158;2023-09-19T07:37:24;99422.61;;;24.32;56.73
55801;BME280;41730;51.960;20.158;2023-09-19T07:39:55;99434.29;;;24.31;56.87
55801;BME280;41730;51.960;20.158;2023-09-19T07:42:27;99427.77;;;24.28;56.72
55801;BME280;41730;51.960;20.158;2023-09-19T07:44:57;99430.73;;;24.20;56.97
55801;BME280;41730;51.960;20.158;2023-09-19T07:47:29;99433.48;;;24.02;57.19
55801;BME280;41730;51.960;20.158;2023-09-19T07:50:01;99431.82;;;23.83;57.69
55801;BME280;41730;51.960;20.158;2023-09-19T07:52:32;99432.65;;;23.58;58.14
55801;BME280;41730;51.960;20.158;2023-09-19T07:55:03;99428.86;;;23.37;58.72
55801;BME280;41730;51.960;20.158;2023-09-19T07:57:37;99433.20;;;23.14;59.26
55801;BME280;41730;51.960;20.158;2023-09-19T08:00:11;99440.64;;;22.83;60.11
55801;BME280;41730;51.960;20.158;2023-09-19T08:02:43;99448.11;;;22.52;61.12
55801;BME280;41730;51.960;20.158;2023-09-19T08:05:24;99449.99;;;22.25;61.92
55801;BME280;41730;51.960;20.158;2023-09-19T08:07:55;99447.63;;;21.99;62.86
55801;BME280;41730;51.960;20.158;2023-09-19T08:10:26;99450.23;;;21.77;63.70
55801;BME280;41730;51.960;20.158;2023-09-19T08:13:04;99450.08;;;21.71;64.22
55801;BME280;41730;51.960;20.158;2023-09-19T08:15:40;99447.89;;;21.55;64.82
55801;BME280;41730;51.960;20.158;2023-09-19T08:18:13;99450.25;;;21.54;65.01
55801;BME280;41730;51.960;20.158;2023-09-19T08:20:48;99444.25;;;21.38;65.61
55801;BME280;41730;51.960;20.158;2023-09-19T08:23:20;99443.19;;;21.29;66.08
55801;BME280;41730;51.960;20.158;2023-09-19T08:25:57;99436.70;;;21.21;66.34
55801;BME280;41730;51.960;20.158;2023-09-19T08:28:35;99446.70;;;21.13;66.84
55801;BME280;41730;51.960;20.158;2023-09-19T08:31:09;99443.65;;;21.06;67.03
55801;BME280;41730;51.960;20.158;2023-09-19T08:33:40;99442.17;;;20.98;67.49
55801;BME280;41730;51.960;20.158;2023-09-19T08:36:11;99444.35;;;20.90;67.83
55801;BME280;41730;51.960;20.158;2023-09-19T08:38:42;99443.29;;;20.70;68.62
55801;BME280;41730;51.960;20.158;2023-09-19T08:41:12;99448.34;;;20.68;68.79
55801;BME280;41730;51.960;20.158;2023-09-19T08:43:44;99447.13;;;20.60;69.35
55801;BME280;41730;51.960;20.158;2023-09-19T08:46:16;99453.26;;;20.55;69.63
55801;BME280;41730;51.960;20.158;2023-09-19T08:48:49;99450.23;;;20.59;69.50
55801;BME280;41730;51.960;20.158;2023-09-19T08:51:25;99450.23;;;20.56;69.71
55801;BME280;41730;51.960;20.158;2023-09-19T08:53:58;99454.38;;;20.56;69.79
55801;BME280;41730;51.960;20.158;2023-09-19T08:56:33;99456.59;;;20.54;70.06
55801;BME280;41730;51.960;20.158;2023-09-19T08:59:08;99452.77;;;20.68;69.93
55801;BME280;41730;51.960;20.158;2023-09-19T09:01:39;99450.93;;;20.80;69.61
55801;BME280;41730;51.960;20.158;2023-09-19T09:04:11;99453.78;;;20.66;70.05
55801;BME280;41730;51.960;20.158;2023-09-19T09:06:42;99455.02;;;20.66;70.33
55801;BME280;41730;51.960;20.158;2023-09-19T09:09:13;99456.98;;;20.74;70.16
55801;BME280;41730;51.960;20.158;2023-09-19T09:11:45;99460.66;;;20.56;70.73
55801;BME280;41730;51.960;20.158;2023-09-19T09:14:16;99464.72;;;20.53;71.00
55801;BME280;41730;51.960;20.158;2023-09-19T09:16:47;99468.42;;;20.56;70.91
55801;BME280;41730;51.960;20.158;2023-09-19T09:19:19;99476.73;;;20.58;70.91
55801;BME280;41730;51.960;20.158;2023-09-19T09:21:53;99474.84;;;20.55;71.09
55801;BME280;41730;51.960;20.158;2023-09-19T09:24:32;99478.28;;;20.60;71.00
55801;BME280;41730;51.960;20.158;2023-09-19T09:27:05;99481.85;;;20.65;70.91
55801;BME280;41730;51.960;20.158;2023-09-19T09:29:43;99481.54;;;20.76;70.57
55801;BME280;41730;51.960;20.158;2023-09-19T09:32:24;99477.84;;;20.84;70.32
55801;BME280;41730;51.960;20.158;2023-09-19T09:34:55;99476.24;;;20.81;70.40
55801;BME280;41730;51.960;20.158;2023-09-19T09:37:29;99475.27;;;20.83;70.50
55801;BME280;41730;51.960;20.158;2023-09-19T09:40:01;99477.27;;;20.93;70.32
55801;BME280;41730;51.960;20.158;2023-09-19T09:42:48;99471.09;;;20.97;70.25
55801;BME280;41730;51.960;20.158;2023-09-19T09:45:22;99467.02;;;20.95;70.35
55801;BME280;41730;51.960;20.158;2023-09-19T09:48:07;99468.02;;;21.02;70.56
55801;BME280;41730;51.960;20.158;2023-09-19T09:50:48;99474.26;;;21.29;70.04
55801;BME280;41730;51.960;20.158;2023-09-19T09:53:32;99476.99;;;21.31;69.93
55801;BME280;41730;51.960;20.158;2023-09-19T09:56:05;99488.27;;;21.31;70.00
55801;BME280;41730;51.960;20.158;2023-09-19T09:58:51;99497.54;;;21.25;70.31
55801;BME280;41730;51.960;20.158;2023-09-19T10:01:23;99496.63;;;21.39;70.06
55801;BME280;41730;51.960;20.158;2023-09-19T10:03:58;99502.13;;;21.44;69.73
55801;BME280;41730;51.960;20.158;2023-09-19T10:06:40;99501.51;;;21.51;69.80
55801;BME280;41730;51.960;20.158;2023-09-19T10:09:16;99499.77;;;21.61;69.62
55801;BME280;41730;51.960;20.158;2023-09-19T10:11:59;99504.19;;;21.70;69.39
55801;BME280;41730;51.960;20.158;2023-09-19T10:14:34;99504.48;;;21.73;69.52
55801;BME280;41730;51.960;20.158;2023-09-19T10:17:06;99507.40;;;21.63;70.04
55801;BME280;41730;51.960;20.158;2023-09-19T10:19:42;99508.66;;;21.65;70.00
55801;BME280;41730;51.960;20.158;2023-09-19T10:22:16;99518.20;;;21.54;70.36
55801;BME280;41730;51.960;20.158;2023-09-19T10:24:50;99516.43;;;21.53;70.67
55801;BME280;41730;51.960;20.158;2023-09-19T10:27:30;99514.66;;;21.65;70.34
55801;BME280;41730;51.960;20.158;2023-09-19T10:30:11;99512.30;;;21.74;70.13
55801;BME280;41730;51.960;20.158;2023-09-19T10:32:45;99503.83;;;21.74;70.16
55801;BME280;41730;51.960;20.158;2023-09-19T10:35:18;99504.63;;;21.88;69.78
55801;BME280;41730;51.960;20.158;2023-09-19T10:37:48;99506.29;;;21.87;69.81
55801;BME280;41730;51.960;20.158;2023-09-19T10:40:20;99508.31;;;21.85;69.90
55801;BME280;41730;51.960;20.158;2023-09-19T10:42:55;99511.40;;;21.86;69.87
55801;BME280;41730;51.960;20.158;2023-09-19T10:45:27;99513.23;;;21.84;70.04
55801;BME280;41730;51.960;20.158;2023-09-19T10:47:59;99512.70;;;21.93;70.00
55801;BME280;41730;51.960;20.158;2023-09-19T10:50:36;99514.24;;;22.11;69.65
55801;BME280;41730;51.960;20.158;2023-09-19T10:53:13;99511.84;;;22.35;69.00
55801;BME280;41730;51.960;20.158;2023-09-19T10:55:48;99523.17;;;22.39;68.91
55801;BME280;41730;51.960;20.158;2023-09-19T10:58:27;99531.94;;;22.36;69.20
55801;BME280;41730;51.960;20.158;2023-09-19T11:00:57;99529.84;;;22.47;68.96
55801;BME280;41730;51.960;20.158;2023-09-19T11:03:36;99527.70;;;22.48;69.03
55801;BME280;41730;51.960;20.158;2023-09-19T11:06:13;99534.37;;;22.49;68.96
55801;BME280;41730;51.960;20.158;2023-09-19T11:08:58;99538.10;;;22.51;68.98
55801;BME280;41730;51.960;20.158;2023-09-19T11:11:46;99540.67;;;22.56;68.90
55801;BME280;41730;51.960;20.158;2023-09-19T11:14:32;99542.53;;;22.57;68.80
55801;BME280;41730;51.960;20.158;2023-09-19T11:20:25;99544.57;;;22.43;69.30
55801;BME280;41730;51.960;20.158;2023-09-19T11:23:23;99545.73;;;22.32;69.69
55801;BME280;41730;51.960;20.158;2023-09-19T11:25:55;99547.52;;;22.35;69.72
55801;BME280;41730;51.960;20.158;2023-09-19T11:28:34;99547.19;;;22.40;69.51
55801;BME280;41730;51.960;20.158;2023-09-19T11:34:04;99554.89;;;22.35;70.02
55801;BME280;41730;51.960;20.158;2023-09-19T11:36:54;99555.10;;;22.53;69.76
55801;BME280;41730;51.960;20.158;2023-09-19T11:39:26;99559.02;;;22.65;69.35
55801;BME280;41730;51.960;20.158;2023-09-19T11:41:57;99561.16;;;22.78;69.12
55801;BME280;41730;51.960;20.158;2023-09-19T11:44:35;99562.77;;;22.83;68.91
55801;BME280;41730;51.960;20.158;2023-09-19T11:47:07;99559.52;;;22.91;68.91
55801;BME280;41730;51.960;20.158;2023-09-19T11:49:38;99557.07;;;23.00;68.64
55801;BME280;41730;51.960;20.158;2023-09-19T11:52:11;99559.58;;;22.93;69.08
55801;BME280;41730;51.960;20.158;2023-09-19T11:54:42;99558.31;;;22.99;69.15
55801;BME280;41730;51.960;20.158;2023-09-19T11:57:14;99562.16;;;22.98;69.13
55801;BME280;41730;51.960;20.158;2023-09-19T11:59:49;99562.61;;;22.82;69.74
55801;BME280;41730;51.960;20.158;2023-09-19T12:02:30;99563.56;;;22.84;69.76
55801;BME280;41730;51.960;20.158;2023-09-19T12:05:06;99564.48;;;22.94;69.37
55801;BME280;41730;51.960;20.158;2023-09-19T12:07:43;99568.30;;;22.92;69.34
55801;BME280;41730;51.960;20.158;2023-09-19T12:10:15;99568.27;;;22.95;69.27
55801;BME280;41730;51.960;20.158;2023-09-19T12:12:48;99567.17;;;23.04;69.02
55801;BME280;41730;51.960;20.158;2023-09-19T12:15:23;99569.40;;;23.10;68.80
55801;BME280;41730;51.960;20.158;2023-09-19T12:17:56;99568.09;;;23.14;68.79
55801;BME280;41730;51.960;20.158;2023-09-19T12:20:26;99567.87;;;23.04;68.93
55801;BME280;41730;51.960;20.158;2023-09-19T12:23:14;99563.86;;;22.96;69.32
55801;BME280;41730;51.960;20.158;2023-09-19T12:25:45;99570.66;;;22.85;69.87
55801;BME280;41730;51.960;20.158;2023-09-19T12:28:17;99570.87;;;22.83;70.04
55801;BME280;41730;51.960;20.158;2023-09-19T12:30:46;99573.98;;;22.86;70.25
55801;BME280;41730;51.960;20.158;2023-09-19T12:33:18;99570.51;;;22.91;69.91
55801;BME280;41730;51.960;20.158;2023-09-19T12:35:53;99577.27;;;23.07;69.53
55801;BME280;41730;51.960;20.158;2023-09-19T12:38:24;99581.48;;;23.08;69.31
55801;BME280;41730;51.960;20.158;2023-09-19T12:40:56;99583.81;;;23.06;69.26
55801;BME280;41730;51.960;20.158;2023-09-19T12:43:29;99584.64;;;23.00;69.56
55801;BME280;41730;51.960;20.158;2023-09-19T12:46:01;99582.32;;;23.03;69.29
55801;BME280;41730;51.960;20.158;2023-09-19T12:48:33;99587.53;;;23.02;69.02
55801;BME280;41730;51.960;20.158;2023-09-19T12:51:04;99588.91;;;23.07;68.72
55801;BME280;41730;51.960;20.158;2023-09-19T12:53:36;99594.60;;;23.01;68.86
55801;BME280;41730;51.960;20.158;2023-09-19T12:56:10;99596.55;;;23.04;68.85
55801;BME280;41730;51.960;20.158;2023-09-19T12:58:52;99598.23;;;23.19;68.22
55801;BME280;41730;51.960;20.158;2023-09-19T13:01:25;99598.17;;;23.21;67.91
55801;BME280;41730;51.960;20.158;2023-09-19T13:04:11;99601.44;;;23.15;67.92
55801;BME280;41730;51.960;20.158;2023-09-19T13:06:44;99604.56;;;23.15;67.87
55801;BME280;41730;51.960;20.158;2023-09-19T13:09:15;99607.52;;;23.13;67.76
55801;BME280;41730;51.960;20.158;2023-09-19T13:11:45;99608.27;;;23.22;67.53
55801;BME280;41730;51.960;20.158;2023-09-19T13:14:19;99605.41;;;23.22;67.31
55801;BME280;41730;51.960;20.158;2023-09-19T13:17:00;99609.52;;;23.20;67.32
55801;BME280;41730;51.960;20.158;2023-09-19T13:19:39;99610.67;;;23.21;67.30
55801;BME280;41730;51.960;20.158;2023-09-19T13:24:59;99613.91;;;23.29;66.76
55801;BME280;41730;51.960;20.158;2023-09-19T13:27:32;99616.52;;;23.29;66.65